Time;durP1;ratioP1;P1;durP2;ratioP2;P2;SDS_P1;SDS_P2;PMS_P1;PMS_P2;Temp;Humidity;BMP_temperature;BMP_pressure;BME280_temperature;BME280_humidity;BME280_pressure;Samples;Min_cycle;Max_cycle;Signal;HPM_P1;HPM_P2
2022/04/16 00:00:56;;;;;;;58.13;34.60;;;8.40;99.90;;;;;;4953466;28;20073;-75
2022/04/16 00:03:24;;;;;;;59.80;35.35;;;8.40;99.90;;;;;;4958235;28;20473;-74
2022/04/16 00:05:53;;;;;;;63.80;34.30;;;8.40;99.90;;;;;;4957882;28;20256;-77
2022/04/16 00:08:21;;;;;;;58.75;34.70;;;8.40;99.90;;;;;;4976296;28;20101;-76
2022/04/16 00:10:49;;;;;;;55.13;33.05;;;8.30;99.90;;;;;;4958161;28;20050;-76
2022/04/16 00:13:17;;;;;;;57.95;34.53;;;8.40;99.90;;;;;;4976050;28;20306;-77
2022/04/16 00:15:46;;;;;;;56.95;35.72;;;8.40;99.90;;;;;;4974838;28;20046;-77
2022/04/16 00:18:13;;;;;;;56.35;35.17;;;8.50;99.90;;;;;;4965363;28;20078;-77
2022/04/16 00:20:44;;;;;;;59.67;36.10;;;8.40;99.90;;;;;;4972175;28;20050;-77
2022/04/16 00:23:11;;;;;;;53.60;34.53;;;8.40;99.90;;;;;;4959061;28;20043;-77
2022/04/16 00:25:38;;;;;;;63.75;35.30;;;8.30;99.90;;;;;;4958710;28;20054;-77
2022/04/16 00:28:08;;;;;;;59.08;34.58;;;8.30;99.90;;;;;;4966440;28;20677;-77
2022/04/16 00:30:39;;;;;;;61.85;33.17;;;8.20;99.90;;;;;;4973903;28;20046;-76
2022/04/16 00:33:07;;;;;;;57.28;34.13;;;8.30;99.90;;;;;;4959127;28;20531;-76
2022/04/16 00:35:34;;;;;;;56.95;31.15;;;8.30;99.90;;;;;;4958428;28;20565;-77
2022/04/16 00:38:01;;;;;;;58.90;32.60;;;8.20;99.90;;;;;;4977529;28;20042;-76
2022/04/16 00:40:28;;;;;;;55.72;33.60;;;8.20;99.90;;;;;;4958809;28;20042;-76
2022/04/16 00:42:55;;;;;;;46.10;27.63;;;8.20;99.90;;;;;;4958210;28;20113;-76
2022/04/16 00:45:22;;;;;;;51.08;29.15;;;8.20;99.90;;;;;;4974154;28;20523;-77
2022/04/16 00:47:49;;;;;;;53.65;29.83;;;8.00;99.90;;;;;;4977861;28;20042;-77
2022/04/16 00:50:16;;;;;;;49.30;30.65;;;8.00;99.90;;;;;;4992570;23;20129;-75
2022/04/16 00:52:44;;;;;;;49.75;30.20;;;8.00;99.90;;;;;;4983628;28;20049;-75
2022/04/16 00:55:11;;;;;;;47.75;29.02;;;8.00;99.90;;;;;;4952985;28;20162;-74
2022/04/16 00:57:40;;;;;;;44.90;26.88;;;8.00;99.90;;;;;;4965589;28;20097;-75
2022/04/16 01:00:09;;;;;;;43.83;27.95;;;8.00;99.90;;;;;;4976897;28;20053;-75
2022/04/16 01:02:39;;;;;;;46.15;28.05;;;7.90;99.90;;;;;;4951741;28;20416;-76
2022/04/16 01:05:07;;;;;;;40.28;27.08;;;7.90;99.90;;;;;;4967340;28;20392;-79
2022/04/16 01:07:34;;;;;;;41.03;26.45;;;7.90;99.90;;;;;;4951972;28;20495;-75
2022/04/16 01:10:01;;;;;;;45.58;26.38;;;7.90;99.90;;;;;;4951532;28;20057;-76
2022/04/16 01:12:28;;;;;;;39.85;25.63;;;7.80;99.90;;;;;;4967630;28;20058;-76
2022/04/16 01:14:56;;;;;;;45.17;28.25;;;7.90;99.90;;;;;;4969425;28;20142;-75
2022/04/16 01:17:23;;;;;;;42.47;27.27;;;7.90;99.90;;;;;;4950706;28;20694;-76
2022/04/16 01:19:50;;;;;;;47.42;28.23;;;7.90;99.90;;;;;;4950582;28;20108;-75
2022/04/16 01:22:20;;;;;;;44.30;28.85;;;8.00;99.90;;;;;;4950235;28;20088;-75
2022/04/16 01:24:48;;;;;;;41.90;28.13;;;8.00;99.90;;;;;;4967457;28;20408;-76
2022/04/16 01:27:17;;;;;;;44.30;28.55;;;8.00;99.90;;;;;;4974486;28;20468;-75
2022/04/16 01:29:44;;;;;;;41.03;27.25;;;7.90;99.90;;;;;;4978440;28;20563;-75
2022/04/16 01:32:11;;;;;;;45.38;28.67;;;7.90;99.90;;;;;;4950148;28;20078;-75
2022/04/16 01:34:38;;;;;;;41.55;26.73;;;8.00;99.90;;;;;;4951103;28;20126;-76
2022/04/16 01:37:05;;;;;;;46.58;28.92;;;8.00;99.90;;;;;;4966685;28;20425;-76
2022/04/16 01:39:32;;;;;;;42.28;27.95;;;8.00;99.90;;;;;;4963281;28;20508;-76
2022/04/16 01:41:59;;;;;;;43.78;27.95;;;8.00;99.90;;;;;;4963367;28;20516;-76
2022/04/16 01:44:29;;;;;;;43.72;27.98;;;8.00;99.90;;;;;;4957300;28;20057;-74
2022/04/16 01:46:56;;;;;;;41.47;27.02;;;7.90;99.90;;;;;;4966576;28;20046;-76
2022/04/16 01:49:23;;;;;;;43.67;27.70;;;7.90;99.90;;;;;;4984519;28;20050;-75
2022/04/16 01:51:50;;;;;;;40.35;27.83;;;8.00;99.90;;;;;;4950069;28;20547;-75
2022/04/16 01:54:17;;;;;;;44.78;29.00;;;8.00;99.90;;;;;;4951031;28;20061;-76
2022/04/16 01:56:44;;;;;;;41.45;27.20;;;8.00;99.90;;;;;;4973365;28;20070;-76
2022/04/16 01:59:11;;;;;;;40.90;28.85;;;8.10;99.90;;;;;;4979881;28;20054;-76
2022/04/16 02:01:38;;;;;;;44.50;29.15;;;8.20;99.90;;;;;;4965418;28;20046;-76
2022/04/16 02:04:05;;;;;;;38.33;28.77;;;8.20;99.90;;;;;;4967005;28;20607;-74
2022/04/16 02:06:31;;;;;;;45.83;30.10;;;8.10;99.90;;;;;;4966541;28;20392;-75
2022/04/16 02:08:58;;;;;;;43.28;29.30;;;8.00;99.90;;;;;;4966872;28;20137;-75
2022/04/16 02:11:25;;;;;;;41.25;27.80;;;8.10;99.90;;;;;;4950154;28;20055;-76
2022/04/16 02:13:52;;;;;;;38.90;28.40;;;7.90;99.90;;;;;;4966538;28;20116;-75
2022/04/16 02:16:19;;;;;;;50.30;30.45;;;7.80;99.90;;;;;;4951072;28;20057;-76
2022/04/16 02:18:46;;;;;;;52.97;30.83;;;7.80;99.90;;;;;;4967392;28;20046;-75
2022/04/16 02:21:12;;;;;;;44.65;29.88;;;7.70;99.90;;;;;;4965890;28;20089;-75
2022/04/16 02:23:39;;;;;;;44.58;29.55;;;7.80;99.90;;;;;;4985245;28;20042;-76
2022/04/16 02:26:07;;;;;;;51.17;31.67;;;7.70;99.90;;;;;;4983451;28;20061;-75
2022/04/16 02:28:34;;;;;;;46.53;31.35;;;7.60;99.90;;;;;;4983070;28;20665;-76
2022/04/16 02:31:01;;;;;;;46.10;30.40;;;7.60;99.90;;;;;;4982594;28;20104;-75
2022/04/16 02:33:30;;;;;;;48.47;32.20;;;7.50;99.90;;;;;;4972343;28;20054;-76
2022/04/16 02:35:57;;;;;;;50.92;32.40;;;7.50;99.90;;;;;;4948644;28;20504;-74
2022/04/16 02:38:24;;;;;;;49.03;30.25;;;7.60;99.90;;;;;;4950372;28;20145;-75
2022/04/16 02:40:51;;;;;;;43.47;29.95;;;7.60;99.90;;;;;;4949558;28;20122;-75
2022/04/16 02:43:18;;;;;;;50.65;31.50;;;7.40;99.90;;;;;;4967094;28;20077;-75
2022/04/16 02:48:30;;;;;;;;;;;7.40;99.90;;;;;;4969803;28;20057;-74
2022/04/16 02:50:57;;;;;;;44.50;29.67;;;7.40;99.90;;;;;;4986237;28;19956;-75
2022/04/16 02:53:26;;;;;;;50.95;32.80;;;7.40;99.90;;;;;;4954407;28;20050;-75
2022/04/16 02:55:55;;;;;;;49.53;33.00;;;7.20;99.90;;;;;;4969326;28;20070;-76
2022/04/16 02:58:22;;;;;;;55.47;34.28;;;7.20;99.90;;;;;;4960225;28;20058;-75
2022/04/16 03:00:49;;;;;;;51.08;32.63;;;7.20;99.90;;;;;;4968688;28;20054;-75
2022/04/16 03:03:16;;;;;;;54.15;34.95;;;7.20;99.90;;;;;;4980034;28;20053;-76
2022/04/16 03:05:43;;;;;;;57.70;32.95;;;7.10;99.90;;;;;;4954206;28;20053;-76
2022/04/16 03:08:12;;;;;;;56.17;34.05;;;7.10;99.90;;;;;;4953177;28;20050;-75
2022/04/16 03:10:39;;;;;;;45.92;31.30;;;7.10;99.90;;;;;;4967629;28;20042;-75
2022/04/16 03:13:06;;;;;;;56.03;34.50;;;7.00;99.90;;;;;;4953763;28;20074;-75
2022/04/16 03:18:19;;;;;;;49.95;32.30;;;7.00;99.90;;;;;;4970059;28;20060;-75
2022/04/16 03:20:46;;;;;;;50.97;31.67;;;7.00;99.90;;;;;;4968345;28;20084;-75
2022/04/16 03:23:13;;;;;;;55.55;32.72;;;6.90;99.90;;;;;;4970195;28;20137;-75
2022/04/16 03:25:43;;;;;;;48.30;31.10;;;6.90;99.90;;;;;;4970197;28;20137;-74
2022/04/16 03:28:10;;;;;;;49.38;31.63;;;6.90;99.90;;;;;;4986444;28;20638;-75
2022/04/16 03:30:37;;;;;;;46.28;31.52;;;6.80;99.90;;;;;;4974033;28;20058;-74
2022/04/16 03:33:04;;;;;;;47.20;31.35;;;6.80;99.90;;;;;;4969808;28;20089;-74
2022/04/16 03:35:31;;;;;;;50.60;31.38;;;6.70;99.90;;;;;;4969589;28;20058;-75
2022/04/16 03:37:58;;;;;;;51.10;33.25;;;6.80;99.90;;;;;;4951681;28;20053;-74
2022/04/16 03:40:29;;;;;;;53.25;33.72;;;6.70;99.90;;;;;;4951196;28;20081;-74
2022/04/16 03:42:58;;;;;;;57.00;35.42;;;6.70;99.90;;;;;;4968982;28;20046;-75
2022/04/16 03:45:31;;;;;;;53.67;35.38;;;6.70;99.90;;;;;;4986348;28;20051;-75
2022/04/16 03:47:59;;;;;;;56.03;38.00;;;6.70;99.90;;;;;;4984857;28;20054;-74
2022/04/16 03:50:27;;;;;;;56.50;38.75;;;6.70;99.90;;;;;;4976121;28;20058;-75
2022/04/16 03:52:56;;;;;;;50.97;34.42;;;6.70;99.90;;;;;;4957416;28;20414;-74
2022/04/16 04:00:58;;;;;;;68.72;42.50;;;6.60;99.90;;;;;;4977765;28;20066;-75
2022/04/16 04:03:25;;;;;;;67.45;41.92;;;6.50;99.90;;;;;;4968140;28;20841;-74
2022/04/16 04:05:54;;;;;;;66.03;41.65;;;6.50;99.90;;;;;;4968048;28;20133;-75
2022/04/16 04:08:22;;;;;;;67.63;41.58;;;6.50;99.90;;;;;;4970239;28;20074;-74
2022/04/16 04:10:49;;;;;;;69.32;42.72;;;6.50;99.90;;;;;;4965869;28;20046;-74
2022/04/16 04:13:17;;;;;;;66.68;40.60;;;6.40;99.90;;;;;;4968305;28;20062;-75
2022/04/16 04:15:44;;;;;;;69.65;41.03;;;6.50;99.90;;;;;;4967228;28;20042;-75
2022/04/16 04:18:11;;;;;;;69.55;40.25;;;6.50;99.90;;;;;;4985661;28;20570;-74
2022/04/16 04:20:38;;;;;;;61.30;38.17;;;6.40;99.90;;;;;;4965298;28;20624;-77
2022/04/16 04:23:05;;;;;;;57.65;37.80;;;6.30;99.90;;;;;;4969375;28;20061;-76
2022/04/16 04:25:32;;;;;;;58.72;36.65;;;6.30;99.90;;;;;;4982667;28;20058;-77
2022/04/16 04:27:59;;;;;;;56.70;36.53;;;6.20;99.90;;;;;;4982431;28;20038;-77
2022/04/16 04:30:26;;;;;;;59.15;38.28;;;6.10;99.90;;;;;;4977536;28;20542;-77
2022/04/16 04:32:56;;;;;;;58.50;34.50;;;6.10;99.90;;;;;;4966170;28;20078;-77
2022/04/16 04:35:25;;;;;;;53.88;32.40;;;5.90;99.90;;;;;;4949644;28;20050;-77
2022/04/16 04:37:52;;;;;;;56.50;35.15;;;5.90;99.90;;;;;;4950136;28;20205;-77
2022/04/16 04:40:19;;;;;;;49.35;33.33;;;5.80;99.90;;;;;;4949969;28;20177;-77
2022/04/16 04:42:46;;;;;;;44.03;29.00;;;5.80;99.90;;;;;;4964559;28;20061;-76
2022/04/16 04:45:14;;;;;;;52.13;32.90;;;5.70;99.90;;;;;;4966586;28;20559;-77
2022/04/16 04:47:42;;;;;;;46.97;31.17;;;5.70;99.90;;;;;;4966932;28;20380;-77
2022/04/16 04:50:09;;;;;;;47.03;30.42;;;5.60;99.90;;;;;;4979195;28;20142;-77
2022/04/16 04:52:37;;;;;;;52.20;32.53;;;5.60;99.90;;;;;;4954315;28;20090;-77
2022/04/16 04:55:08;;;;;;;43.17;29.02;;;5.60;99.90;;;;;;4966769;28;20050;-77
2022/04/16 04:57:35;;;;;;;46.92;29.38;;;5.60;99.90;;;;;;4978402;28;20546;-77
2022/04/16 05:00:02;;;;;;;48.80;31.88;;;5.60;99.90;;;;;;4963096;28;20062;-77
2022/04/16 05:02:43;;;;;;;44.25;28.98;;;5.60;99.90;;;;;;4980071;28;20511;-77
2022/04/16 05:05:11;;;;;;;43.60;30.77;;;5.50;99.90;;;;;;4965955;28;20046;-78
2022/04/16 05:07:39;;;;;;;46.20;31.50;;;5.50;99.90;;;;;;4966610;28;20878;-77
2022/04/16 05:10:06;;;;;;;47.60;31.05;;;5.50;99.90;;;;;;4949137;28;20053;-77
2022/04/16 05:12:33;;;;;;;44.72;29.23;;;5.40;99.90;;;;;;4964650;28;20057;-76
2022/04/16 05:15:00;;;;;;;46.65;30.02;;;5.40;99.90;;;;;;4966563;28;20046;-77
2022/04/16 05:17:27;;;;;;;42.92;29.08;;;5.40;99.90;;;;;;4950479;28;20080;-78
2022/04/16 05:19:54;;;;;;;44.90;30.38;;;5.30;99.90;;;;;;4966181;28;20050;-77
2022/04/16 05:22:20;;;;;;;51.17;34.95;;;5.30;99.90;;;;;;4965944;28;20077;-77
2022/04/16 05:24:47;;;;;;;45.75;30.92;;;5.30;99.90;;;;;;4965521;28;20096;-76
2022/04/16 05:27:15;;;;;;;40.67;29.50;;;5.20;99.90;;;;;;4958031;28;20054;-77
2022/04/16 05:32:40;;;;;;;46.45;29.25;;;5.20;99.90;;;;;;4965541;28;20065;-77
2022/04/16 05:35:09;;;;;;;40.80;26.10;;;5.20;99.90;;;;;;4965966;28;20043;-77
2022/04/16 05:37:36;;;;;;;36.10;28.20;;;5.10;99.90;;;;;;4962925;28;20046;-77
2022/04/16 05:40:03;;;;;;;39.33;27.35;;;5.10;99.90;;;;;;4948974;28;20569;-77
2022/04/16 05:42:30;;;;;;;39.08;26.27;;;5.10;99.90;;;;;;4965074;28;20595;-77
2022/04/16 05:45:02;;;;;;;36.03;26.30;;;5.10;99.90;;;;;;4949239;28;20073;-76
2022/04/16 05:47:28;;;;;;;31.83;24.08;;;5.10;99.90;;;;;;4966275;28;20042;-76
2022/04/16 05:49:55;;;;;;;31.77;25.50;;;5.10;99.90;;;;;;4977537;28;20046;-78
2022/04/16 05:52:23;;;;;;;29.30;24.95;;;5.00;99.90;;;;;;4954592;28;20050;-77
2022/04/16 05:54:51;;;;;;;32.38;26.20;;;5.10;99.90;;;;;;4950098;28;20413;-76
2022/04/16 05:57:23;;;;;;;37.58;26.88;;;5.10;99.90;;;;;;4973681;28;20736;-78
2022/04/16 05:59:50;;;;;;;34.05;27.25;;;5.20;99.90;;;;;;4981785;28;20047;-76
2022/04/16 06:02:17;;;;;;;30.98;27.60;;;5.20;99.90;;;;;;4982443;28;20120;-78
2022/04/16 06:04:44;;;;;;;33.22;28.58;;;5.30;99.90;;;;;;4983197;28;20470;-76
2022/04/16 06:07:11;;;;;;;25.70;23.10;;;5.30;99.90;;;;;;4950493;28;20533;-77
2022/04/16 06:09:37;;;;;;;30.90;27.70;;;5.30;99.90;;;;;;4950976;28;20112;-77
2022/04/16 06:12:05;;;;;;;29.45;26.38;;;5.30;99.90;;;;;;4949357;28;20049;-77
2022/04/16 06:14:32;;;;;;;30.17;27.30;;;5.40;99.90;;;;;;4967610;28;20050;-77
2022/04/16 06:16:59;;;;;;;31.50;28.27;;;5.40;99.90;;;;;;4966879;28;20074;-77
2022/04/16 06:19:26;;;;;;;28.63;25.70;;;5.50;99.90;;;;;;4967716;28;20089;-77
2022/04/16 06:21:53;;;;;;;29.77;27.08;;;5.50;99.90;;;;;;4945231;28;20081;-77
2022/04/16 06:24:20;;;;;;;28.80;25.85;;;5.50;99.90;;;;;;4952140;28;20046;-77
2022/04/16 06:26:47;;;;;;;28.67;26.02;;;5.50;99.90;;;;;;4972568;28;20139;-76
2022/04/16 06:29:14;;;;;;;25.38;23.30;;;5.50;99.90;;;;;;4984917;28;20062;-77
2022/04/16 06:31:42;;;;;;;28.45;26.08;;;5.50;99.90;;;;;;4972583;28;20120;-76
2022/04/16 06:34:09;;;;;;;27.48;25.35;;;5.60;99.90;;;;;;4971245;28;20601;-76
2022/04/16 06:36:38;;;;;;;25.88;23.85;;;5.60;99.90;;;;;;4969582;28;20073;-78
2022/04/16 06:39:04;;;;;;;29.98;27.40;;;5.70;99.90;;;;;;4954983;28;20459;-77
2022/04/16 06:41:32;;;;;;;25.25;23.42;;;5.80;99.90;;;;;;4954271;28;20073;-77
2022/04/16 06:43:59;;;;;;;26.33;24.45;;;5.80;99.90;;;;;;4971184;28;20667;-77
2022/04/16 06:46:27;;;;;;;27.15;25.00;;;5.90;99.90;;;;;;4955399;28;20084;-77
2022/04/16 06:48:54;;;;;;;27.83;25.48;;;6.10;99.90;;;;;;4971511;28;20133;-77
2022/04/16 06:51:21;;;;;;;26.98;25.05;;;6.20;99.90;;;;;;4982046;28;20042;-77
2022/04/16 06:53:48;;;;;;;24.25;22.95;;;6.40;99.90;;;;;;4971731;28;20133;-75
2022/04/16 06:56:14;;;;;;;26.30;24.30;;;6.60;99.90;;;;;;4970150;28;20578;-75
2022/04/16 06:58:42;;;;;;;31.48;28.83;;;6.40;99.90;;;;;;4983598;28;20050;-76
2022/04/16 07:01:08;;;;;;;26.20;24.67;;;6.30;99.90;;;;;;4984513;28;20096;-77
2022/04/16 07:03:35;;;;;;;26.00;24.13;;;6.30;99.90;;;;;;4960056;28;20043;-76
2022/04/16 07:06:02;;;;;;;25.15;23.70;;;6.30;99.90;;;;;;4970519;28;20042;-75
2022/04/16 07:08:29;;;;;;;26.63;25.08;;;6.40;99.90;;;;;;4952961;28;20479;-78
2022/04/16 07:10:56;;;;;;;25.33;23.90;;;6.50;99.90;;;;;;4969169;28;20093;-75
2022/04/16 07:13:22;;;;;;;24.20;23.00;;;6.60;99.90;;;;;;4971190;28;20139;-75
2022/04/16 07:15:49;;;;;;;23.73;22.42;;;6.80;99.90;;;;;;4975143;28;20046;-75
2022/04/16 07:18:16;;;;;;;25.05;23.75;;;7.00;99.90;;;;;;4977345;28;20144;-76
2022/04/16 07:20:43;;;;;;;22.63;21.52;;;7.10;99.90;;;;;;4952706;28;20196;-75
2022/04/16 07:23:09;;;;;;;23.67;22.38;;;7.40;99.90;;;;;;4967025;28;20058;-76
2022/04/16 07:25:36;;;;;;;23.10;21.73;;;7.70;99.90;;;;;;4968181;28;20150;-75
2022/04/16 07:28:03;;;;;;;23.70;22.38;;;7.30;99.90;;;;;;4959371;28;20555;-75
2022/04/16 07:30:30;;;;;;;22.48;21.25;;;7.10;99.90;;;;;;4966307;28;20435;-75
2022/04/16 07:32:57;;;;;;;22.85;21.65;;;7.70;99.90;;;;;;4968523;28;20194;-75
2022/04/16 07:35:27;;;;;;;23.70;22.38;;;8.20;99.90;;;;;;4973068;28;20064;-75
2022/04/16 07:37:57;;;;;;;25.23;23.52;;;8.30;99.90;;;;;;4953983;28;20281;-76
2022/04/16 07:40:24;;;;;;;24.17;22.77;;;8.40;99.90;;;;;;4969134;28;20423;-75
2022/04/16 07:42:52;;;;;;;22.45;21.35;;;8.20;99.90;;;;;;4967629;28;20054;-76
2022/04/16 07:45:18;;;;;;;21.60;20.40;;;8.80;99.90;;;;;;4986763;28;20073;-76
2022/04/16 07:47:45;;;;;;;21.85;20.65;;;8.60;99.90;;;;;;4953328;28;20073;-75
2022/04/16 07:50:12;;;;;;;21.98;20.55;;;8.70;99.90;;;;;;4966913;28;20081;-76
2022/04/16 07:52:39;;;;;;;21.63;20.42;;;9.00;99.90;;;;;;4953073;28;20078;-76
2022/04/16 07:55:12;;;;;;;21.70;20.60;;;9.00;99.90;;;;;;4986301;28;20100;-76
2022/04/16 07:57:39;;;;;;;23.05;21.85;;;8.50;99.90;;;;;;4983227;28;20674;-76
2022/04/16 08:00:07;;;;;;;23.17;22.00;;;8.80;99.90;;;;;;4973700;28;20082;-76
2022/04/16 08:02:40;;;;;;;22.42;21.13;;;8.70;99.90;;;;;;4967748;28;20074;-76
2022/04/16 08:05:07;;;;;;;23.02;21.88;;;8.90;99.90;;;;;;4952736;28;20050;-76
2022/04/16 08:07:34;;;;;;;24.48;23.17;;;9.20;99.90;;;;;;4968613;28;20081;-75
2022/04/16 08:10:01;;;;;;;24.55;23.35;;;8.50;99.90;;;;;;4968981;28;20451;-76
2022/04/16 08:12:27;;;;;;;25.33;24.13;;;8.20;99.90;;;;;;4984929;28;20190;-75
2022/04/16 08:14:54;;;;;;;24.05;22.77;;;8.20;99.90;;;;;;4968273;28;20074;-75
2022/04/16 08:17:21;;;;;;;24.40;23.20;;;8.10;99.90;;;;;;4952428;28;20630;-76
2022/04/16 08:19:48;;;;;;;25.67;24.38;;;8.60;99.90;;;;;;4950998;28;20078;-75
2022/04/16 08:22:18;;;;;;;26.45;24.95;;;8.40;99.90;;;;;;4967599;28;20050;-75
2022/04/16 08:24:54;;;;;;;25.85;24.67;;;8.60;99.90;;;;;;4986351;28;20062;-75
2022/04/16 08:27:21;;;;;;;26.30;25.10;;;8.80;99.90;;;;;;4977802;28;20064;-75
2022/04/16 08:29:48;;;;;;;27.40;25.80;;;8.80;99.90;;;;;;4982690;28;20631;-76
2022/04/16 08:32:15;;;;;;;25.90;24.65;;;9.00;99.90;;;;;;4968431;28;20120;-75
2022/04/16 08:34:49;;;;;;;27.63;26.20;;;9.40;99.90;;;;;;4969249;28;20112;-76
2022/04/16 08:37:16;;;;;;;27.52;25.63;;;9.70;99.90;;;;;;4967714;28;20566;-76
2022/04/16 08:39:42;;;;;;;28.77;27.05;;;9.70;99.90;;;;;;4985809;28;20104;-75
2022/04/16 08:42:09;;;;;;;27.90;26.60;;;9.50;99.90;;;;;;4969097;28;20039;-77
2022/04/16 08:44:38;;;;;;;28.02;26.73;;;9.40;99.90;;;;;;4952003;28;20108;-76
2022/04/16 08:47:06;;;;;;;28.27;26.98;;;9.00;99.90;;;;;;4968867;28;20726;-76
2022/04/16 08:49:33;;;;;;;28.02;26.73;;;9.00;99.90;;;;;;4951930;28;20046;-76
2022/04/16 08:52:02;;;;;;;27.80;26.40;;;9.30;99.90;;;;;;4967420;28;20061;-76
2022/04/16 08:54:30;;;;;;;28.13;26.90;;;9.40;99.90;;;;;;4969161;28;20112;-76
2022/04/16 08:56:57;;;;;;;27.75;26.48;;;9.80;99.90;;;;;;4972845;28;20084;-76
2022/04/16 08:59:23;;;;;;;27.92;26.63;;;9.90;99.90;;;;;;4985606;28;20046;-76
2022/04/16 09:01:51;;;;;;;29.05;27.75;;;10.30;99.90;;;;;;4977333;28;20050;-76
2022/04/16 09:04:22;;;;;;;28.33;26.85;;;10.10;99.90;;;;;;4967222;28;20053;-75
2022/04/16 09:07:16;;;;;;;29.40;28.08;;;10.10;99.90;;;;;;4967835;28;20042;-76
2022/04/16 09:09:42;;;;;;;30.58;29.17;;;10.50;99.50;;;;;;4966100;28;20113;-76
2022/04/16 09:12:17;;;;;;;31.60;30.20;;;10.10;98.10;;;;;;4952191;28;20353;-75
2022/04/16 09:14:46;;;;;;;29.80;28.38;;;9.90;98.00;;;;;;4967363;28;20054;-75
2022/04/16 09:17:16;;;;;;;31.73;30.23;;;10.20;98.10;;;;;;4966183;28;20069;-75
2022/04/16 09:19:52;;;;;;;30.55;29.17;;;9.60;96.50;;;;;;4951006;28;20062;-75
2022/04/16 09:22:33;;;;;;;31.90;30.50;;;9.40;97.20;;;;;;4966554;28;20500;-75
2022/04/16 09:25:00;;;;;;;31.17;29.77;;;9.10;96.70;;;;;;4948656;28;20201;-75
2022/04/16 09:27:27;;;;;;;31.35;29.95;;;9.60;97.90;;;;;;4976886;28;20137;-75
2022/04/16 09:29:54;;;;;;;32.00;30.50;;;9.50;96.50;;;;;;4967218;28;20042;-75
2022/04/16 09:32:23;;;;;;;30.88;29.48;;;9.40;96.40;;;;;;4966648;28;20057;-76
2022/04/16 09:34:51;;;;;;;31.48;30.08;;;10.00;96.30;;;;;;4966662;28;20051;-75
2022/04/16 09:37:17;;;;;;;30.67;29.27;;;9.80;96.00;;;;;;4965534;28;20043;-76
2022/04/16 09:39:44;;;;;;;32.33;30.67;;;10.40;98.00;;;;;;4950356;28;20081;-75
2022/04/16 09:42:11;;;;;;;32.67;31.13;;;10.70;95.70;;;;;;4948579;28;20054;-76
2022/04/16 09:44:38;;;;;;;32.45;30.80;;;10.70;95.70;;;;;;4963376;28;20645;-76
2022/04/16 09:47:06;;;;;;;31.25;29.92;;;10.30;95.10;;;;;;4963590;28;20113;-76
2022/04/16 09:49:38;;;;;;;34.17;32.58;;;10.10;96.00;;;;;;4963511;28;20109;-76
2022/04/16 09:52:06;;;;;;;30.85;29.15;;;10.40;95.40;;;;;;4963180;28;20043;-75
2022/04/16 09:54:34;;;;;;;31.70;30.13;;;10.70;95.70;;;;;;4963546;28;20526;-75
2022/04/16 09:57:02;;;;;;;30.08;28.67;;;10.70;96.50;;;;;;4981110;28;20663;-75
2022/04/16 09:59:35;;;;;;;31.02;29.63;;;11.50;95.30;;;;;;4986577;28;20068;-75
2022/04/16 10:02:03;;;;;;;31.55;30.15;;;10.80;95.30;;;;;;4986489;28;20593;-75
2022/04/16 10:04:31;;;;;;;30.88;29.27;;;11.00;96.60;;;;;;4972390;28;20042;-75
2022/04/16 10:06:58;;;;;;;31.15;29.75;;;11.20;94.90;;;;;;4971016;28;20046;-75
2022/04/16 10:09:24;;;;;;;32.08;30.67;;;11.10;95.30;;;;;;4967855;28;20112;-76
2022/04/16 10:14:49;;;;;;;32.42;30.77;;;11.70;94.70;;;;;;4969765;28;20073;-75
2022/04/16 10:17:32;;;;;;;32.45;30.95;;;11.30;94.40;;;;;;4970233;28;20054;-75
2022/04/16 10:20:10;;;;;;;32.28;30.77;;;11.40;94.40;;;;;;4974012;28;20105;-75
2022/04/16 10:22:38;;;;;;;31.50;29.90;;;11.10;94.80;;;;;;4970384;28;20124;-76
2022/04/16 10:25:05;;;;;;;34.38;32.78;;;11.10;95.20;;;;;;4972418;28;20050;-76
2022/04/16 10:27:42;;;;;;;31.45;30.05;;;11.10;96.00;;;;;;4967282;28;20042;-75
2022/04/16 10:30:15;;;;;;;29.17;27.77;;;11.30;95.40;;;;;;4985154;28;20049;-75
2022/04/16 10:32:44;;;;;;;32.17;30.27;;;11.20;96.60;;;;;;4953832;28;20484;-75
2022/04/16 10:35:17;;;;;;;31.63;30.20;;;11.00;97.00;;;;;;4969673;28;20101;-76
2022/04/16 10:37:49;;;;;;;32.92;31.38;;;11.00;96.10;;;;;;4988393;28;20424;-76
2022/04/16 10:40:25;;;;;;;32.30;30.63;;;10.80;95.50;;;;;;4949603;28;20058;-75
2022/04/16 10:42:58;;;;;;;30.58;29.08;;;11.10;95.20;;;;;;4970034;28;20069;-75
2022/04/16 10:45:25;;;;;;;31.42;29.50;;;11.40;94.10;;;;;;4969157;28;20050;-76
2022/04/16 10:47:54;;;;;;;30.02;28.58;;;11.80;95.90;;;;;;4969703;28;20077;-75
2022/04/16 10:50:22;;;;;;;31.40;30.00;;;11.60;94.70;;;;;;4966971;28;20239;-76
2022/04/16 10:53:04;;;;;;;31.67;30.00;;;11.40;94.50;;;;;;4969897;28;20042;-76
2022/04/16 10:55:31;;;;;;;30.90;29.50;;;11.60;93.60;;;;;;4985935;28;20132;-76
2022/04/16 10:58:05;;;;;;;30.17;28.77;;;12.20;96.90;;;;;;4969320;28;20069;-75
2022/04/16 11:00:45;;;;;;;30.00;28.45;;;11.80;95.20;;;;;;4968312;28;20050;-75
2022/04/16 11:03:14;;;;;;;31.10;29.52;;;11.90;96.10;;;;;;4985363;28;20050;-76
2022/04/16 11:05:44;;;;;;;33.38;31.85;;;12.20;95.10;;;;;;4971903;28;20065;-75
2022/04/16 11:08:14;;;;;;;32.38;30.77;;;11.80;94.60;;;;;;4965780;28;20147;-75
2022/04/16 11:10:42;;;;;;;32.55;31.05;;;11.50;94.30;;;;;;4967270;28;20406;-75
2022/04/16 11:13:12;;;;;;;31.90;30.23;;;11.60;94.90;;;;;;4952860;28;20050;-75
2022/04/16 11:15:41;;;;;;;32.20;30.52;;;12.00;94.00;;;;;;4969065;28;20047;-75
2022/04/16 11:18:09;;;;;;;31.40;29.40;;;12.30;93.80;;;;;;4986014;28;20054;-76
2022/04/16 11:20:36;;;;;;;33.13;31.63;;;12.70;94.20;;;;;;4967945;28;20042;-75
2022/04/16 11:23:11;;;;;;;32.40;30.80;;;12.70;90.20;;;;;;4968829;28;20279;-75
2022/04/16 11:34:20;;;;;;;32.60;31.15;;;11.80;92.50;;;;;;4969079;28;20050;-75
2022/04/16 11:36:50;;;;;;;31.80;30.23;;;12.00;91.20;;;;;;4985621;28;20046;-75
2022/04/16 11:39:22;;;;;;;34.03;32.38;;;11.80;90.90;;;;;;4968234;28;20042;-75
2022/04/16 11:41:57;;;;;;;32.17;30.70;;;11.80;90.60;;;;;;4949669;28;20109;-75
2022/04/16 11:44:43;;;;;;;31.85;30.35;;;11.80;91.20;;;;;;4956483;28;20050;-75
2022/04/16 11:47:11;;;;;;;32.88;31.27;;;12.20;91.80;;;;;;4965811;28;20499;-75
2022/04/16 11:49:43;;;;;;;32.38;30.70;;;12.20;91.50;;;;;;4976904;28;20042;-76
2022/04/16 11:52:10;;;;;;;33.60;32.00;;;12.60;91.30;;;;;;4986349;28;20470;-76
2022/04/16 11:54:38;;;;;;;31.27;29.77;;;12.50;91.30;;;;;;4971159;28;20472;-75
2022/04/16 11:57:05;;;;;;;33.95;32.15;;;12.90;92.00;;;;;;4981295;28;20042;-76
2022/04/16 11:59:33;;;;;;;32.45;30.95;;;12.80;91.70;;;;;;4956175;28;20058;-76
2022/04/16 12:02:18;;;;;;;34.05;32.55;;;12.80;90.70;;;;;;4966508;28;20050;-75
2022/04/16 12:04:45;;;;;;;34.00;32.42;;;12.60;91.20;;;;;;4966834;28;20468;-75
2022/04/16 12:07:14;;;;;;;32.72;30.50;;;12.80;90.90;;;;;;4950026;28;20293;-75
2022/04/16 12:09:48;;;;;;;32.95;31.25;;;12.90;89.50;;;;;;4967281;28;20113;-75
2022/04/16 12:12:17;;;;;;;31.53;30.20;;;12.80;90.00;;;;;;4967518;28;20411;-75
2022/04/16 12:14:50;;;;;;;30.52;29.23;;;12.90;90.90;;;;;;4967204;28;20186;-75
2022/04/16 12:17:29;;;;;;;30.92;29.23;;;12.90;88.50;;;;;;4967112;28;20450;-76
2022/04/16 12:20:08;;;;;;;30.55;29.15;;;12.90;90.50;;;;;;4968455;28;20058;-75
2022/04/16 12:22:47;;;;;;;30.73;29.23;;;13.00;90.10;;;;;;4967587;28;20080;-76
2022/04/16 12:25:17;;;;;;;32.90;31.30;;;13.30;89.40;;;;;;4967462;28;20211;-76
2022/04/16 12:27:52;;;;;;;33.30;31.67;;;13.20;90.50;;;;;;4980420;28;20046;-75
2022/04/16 12:30:24;;;;;;;34.50;32.70;;;13.40;90.50;;;;;;4964687;28;20050;-75
2022/04/16 12:33:11;;;;;;;32.78;31.17;;;13.20;91.60;;;;;;4952008;28;20054;-76
2022/04/16 12:35:47;;;;;;;33.40;31.85;;;13.50;88.00;;;;;;4952099;28;20049;-75
2022/04/16 12:38:17;;;;;;;33.40;31.73;;;13.40;90.00;;;;;;4963668;28;20452;-75
2022/04/16 12:40:45;;;;;;;33.92;32.22;;;13.10;89.30;;;;;;4965418;28;20058;-76
2022/04/16 12:43:11;;;;;;;33.78;32.08;;;13.00;87.40;;;;;;4965516;28;20159;-76
2022/04/16 12:45:38;;;;;;;35.63;33.58;;;13.00;90.40;;;;;;4950560;28;20069;-75
2022/04/16 12:48:06;;;;;;;34.33;32.50;;;13.20;90.00;;;;;;4948168;28;20047;-76
2022/04/16 12:50:33;;;;;;;33.65;32.25;;;13.10;90.70;;;;;;4997807;28;20088;-76
2022/04/16 12:53:00;;;;;;;30.77;29.30;;;13.00;90.20;;;;;;4951119;28;20124;-75
2022/04/16 12:55:33;;;;;;;31.13;29.63;;;13.00;90.60;;;;;;4951185;28;20496;-75
2022/04/16 12:58:00;;;;;;;32.78;31.08;;;12.60;91.30;;;;;;4981973;28;20197;-76
2022/04/16 13:00:27;;;;;;;35.08;33.28;;;12.50;91.70;;;;;;4982324;28;20053;-75
2022/04/16 13:02:59;;;;;;;32.88;31.25;;;12.60;91.80;;;;;;4982101;28;20116;-75
2022/04/16 13:05:29;;;;;;;33.60;31.90;;;13.10;90.90;;;;;;4965917;28;20066;-75